Time;durP1;ratioP1;P1;durP2;ratioP2;P2;SDS_P1;SDS_P2;PMS_P1;PMS_P2;Temp;Humidity;BMP_temperature;BMP_pressure;BME280_temperature;BME280_humidity;BME280_pressure;Samples;Min_cycle;Max_cycle;Signal;HPM_P1;HPM_P2
2021/11/05 00:02:03;;;;;;;1999.90;999.90;;;;;;;2.51;65.39;100529.66;4967262;28;96991;-84
2021/11/05 00:04:35;;;;;;;1999.90;999.90;;;;;;;2.55;65.51;100523.69;4966827;28;98225;-83
2021/11/05 00:07:09;;;;;;;1999.90;999.90;;;;;;;2.52;65.60;100529.72;4973198;28;98752;-84
2021/11/05 00:09:41;;;;;;;1999.90;999.90;;;;;;;2.54;65.24;100538.59;4969237;28;101561;-83
2021/11/05 00:12:13;;;;;;;1999.90;999.90;;;;;;;2.52;65.92;100534.06;4963248;28;98058;-83
2021/11/05 00:14:47;;;;;;;1999.90;999.90;;;;;;;2.52;65.46;100544.56;4954893;28;97290;-83
2021/11/05 00:17:16;;;;;;;1999.90;999.90;;;;;;;2.53;65.12;100541.13;4965918;28;98188;-83
2021/11/05 00:19:46;;;;;;;1999.90;999.90;;;;;;;2.55;65.65;100550.88;4964925;28;98741;-85
2021/11/05 00:22:15;;;;;;;1999.90;999.90;;;;;;;2.56;65.51;100549.16;4949592;28;97373;-83
2021/11/05 00:24:53;;;;;;;1999.90;999.90;;;;;;;2.58;65.66;100553.66;4968808;28;97815;-84
2021/11/05 00:27:25;;;;;;;1999.90;999.90;;;;;;;2.58;65.58;100560.63;4964991;28;98009;-84
2021/11/05 00:29:59;;;;;;;1999.90;999.90;;;;;;;2.55;66.13;100566.63;4968112;28;98133;-85
2021/11/05 00:32:28;;;;;;;1999.90;999.90;;;;;;;2.57;65.34;100566.69;4954269;28;97529;-83
2021/11/05 00:34:59;;;;;;;1999.90;999.90;;;;;;;2.63;65.75;100572.25;4971014;28;97536;-86
2021/11/05 00:37:43;;;;;;;1999.90;999.90;;;;;;;2.63;66.05;100575.81;4963228;28;100764;-85
2021/11/05 00:40:16;;;;;;;1999.90;999.90;;;;;;;2.64;65.70;100582.84;4968517;28;99280;-85
2021/11/05 00:42:50;;;;;;;1999.90;999.90;;;;;;;2.66;65.45;100581.19;4962922;28;98532;-84
2021/11/05 00:45:20;;;;;;;1999.90;999.90;;;;;;;2.68;64.99;100586.50;4972250;28;97307;-83
2021/11/05 00:47:53;;;;;;;1999.90;999.90;;;;;;;2.67;65.74;100580.38;4958835;28;99335;-85
2021/11/05 00:50:28;;;;;;;1999.90;999.90;;;;;;;2.58;65.97;100592.16;4975157;28;100211;-83
2021/11/05 00:52:59;;;;;;;1999.90;999.90;;;;;;;2.58;65.45;100592.16;4952611;28;97058;-87
2021/11/05 00:55:28;;;;;;;1999.90;999.90;;;;;;;2.58;65.61;100594.78;4968650;28;97331;-83
2021/11/05 00:58:00;;;;;;;1999.90;999.90;;;;;;;2.60;65.60;100601.00;4964684;28;98992;-84
2021/11/05 01:00:41;;;;;;;1999.90;999.90;;;;;;;2.58;65.54;100600.94;4955096;28;102583;-82
2021/11/05 01:03:10;;;;;;;1999.90;999.90;;;;;;;2.59;65.47;100602.72;4972376;28;96961;-83
2021/11/05 01:05:42;;;;;;;1999.90;999.90;;;;;;;2.61;65.60;100608.06;4959772;28;98093;-83
2021/11/05 01:08:12;;;;;;;1999.90;999.90;;;;;;;2.64;65.47;100610.81;4948667;28;99269;-84
2021/11/05 01:10:40;;;;;;;1999.90;999.90;;;;;;;2.63;65.71;100611.66;4952469;28;99521;-85
2021/11/05 01:13:10;;;;;;;1999.90;999.90;;;;;;;2.58;65.86;100605.28;4991365;28;98021;-83
2021/11/05 01:15:40;;;;;;;1999.90;999.90;;;;;;;2.59;65.65;100617.59;4966817;28;97354;-83
2021/11/05 01:18:11;;;;;;;1999.90;999.90;;;;;;;2.59;65.59;100615.88;4963751;28;98343;-82
2021/11/05 01:20:40;;;;;;;1999.90;999.90;;;;;;;2.61;65.88;100629.97;4964857;28;99762;-83
2021/11/05 01:23:10;;;;;;;1999.90;999.90;;;;;;;2.64;65.71;100627.50;4970605;28;97541;-83
2021/11/05 01:25:39;;;;;;;1999.90;999.90;;;;;;;2.64;65.43;100624.88;4974374;28;97085;-85
2021/11/05 01:28:08;;;;;;;1999.90;999.90;;;;;;;2.67;65.25;100634.66;4969535;28;100733;-85
2021/11/05 01:30:40;;;;;;;1999.90;999.90;;;;;;;2.66;65.20;100627.56;4953683;28;99515;-85
2021/11/05 01:33:09;;;;;;;1999.90;999.90;;;;;;;2.65;65.80;100637.19;4975415;28;97135;-83
2021/11/05 01:35:42;;;;;;;1999.90;999.90;;;;;;;2.65;65.77;100638.91;4957821;28;97604;-85
2021/11/05 01:38:14;;;;;;;1999.90;999.90;;;;;;;2.61;65.48;100645.75;4977630;28;100600;-84
2021/11/05 01:40:44;;;;;;;1999.90;999.90;;;;;;;2.61;65.36;100651.00;4966174;28;99132;-85
2021/11/05 01:43:14;;;;;;;1999.90;999.90;;;;;;;2.61;65.01;100657.97;4963627;28;96838;-85
2021/11/05 01:48:33;;;;;;;1999.90;999.90;;;;;;;2.64;65.67;100666.00;4948405;28;98846;-83
2021/11/05 01:51:02;;;;;;;1999.90;999.90;;;;;;;2.60;65.73;100664.06;4970048;28;99111;-83
2021/11/05 01:53:30;;;;;;;1999.90;999.90;;;;;;;2.60;65.06;100662.31;4974247;28;96953;-82
2021/11/05 01:56:01;;;;;;;1999.90;999.90;;;;;;;2.58;65.46;100665.69;4965518;28;98892;-83
2021/11/05 01:58:33;;;;;;;1999.90;999.90;;;;;;;2.57;65.83;100674.38;4953474;28;98456;-83
2021/11/05 02:01:04;;;;;;;1999.90;999.90;;;;;;;2.57;65.24;100675.28;4954674;28;101013;-84
2021/11/05 02:03:38;;;;;;;1999.90;999.90;;;;;;;2.56;65.43;100673.50;4979071;28;96839;-86
2021/11/05 02:06:13;;;;;;;1999.90;999.90;;;;;;;2.59;65.05;100684.16;4961286;28;98980;-83
2021/11/05 02:08:44;;;;;;;1999.90;999.90;;;;;;;2.58;64.94;100686.72;4978223;28;99232;-84
2021/11/05 02:11:17;;;;;;;1999.90;999.90;;;;;;;2.59;65.20;100693.75;4992317;28;97785;-82
2021/11/05 02:13:50;;;;;;;1999.90;999.90;;;;;;;2.57;65.34;100690.13;4959318;28;97685;-86
2021/11/05 02:16:24;;;;;;;1999.90;999.90;;;;;;;2.55;65.49;100691.78;4959561;28;96934;-84
2021/11/05 02:19:01;;;;;;;1999.90;999.90;;;;;;;2.58;65.29;100702.47;4963334;28;102252;-84
2021/11/05 02:21:47;;;;;;;1999.90;999.90;;;;;;;2.57;65.20;100706.81;4965857;28;99589;-84
2021/11/05 02:24:32;;;;;;;1999.90;999.90;;;;;;;2.60;65.13;100713.97;4987356;28;96845;-85
2021/11/05 02:27:10;;;;;;;1999.90;999.90;;;;;;;2.62;65.40;100722.81;4980300;28;96785;-84
2021/11/05 02:33:08;;;;;;;1999.90;999.90;;;;;;;2.60;65.38;100727.09;4934039;28;99460;-83
2021/11/05 02:35:47;;;;;;;1999.90;999.90;;;;;;;2.57;65.66;100729.53;4975943;28;98990;-84
2021/11/05 02:38:20;;;;;;;1999.90;999.90;;;;;;;2.55;65.14;100733.81;4967953;28;97560;-82
2021/11/05 02:40:49;;;;;;;1999.90;999.90;;;;;;;2.55;65.46;100742.59;4952464;28;99508;-84
2021/11/05 02:43:26;;;;;;;1999.90;999.90;;;;;;;2.54;65.02;100739.91;4965538;28;99605;-85
2021/11/05 02:46:03;;;;;;;1999.90;999.90;;;;;;;2.57;65.01;100750.56;4961926;28;98736;-83
2021/11/05 02:48:33;;;;;;;1999.90;999.90;;;;;;;2.54;65.41;100758.28;4960214;28;97363;-84
2021/11/05 02:51:03;;;;;;;1999.90;999.90;;;;;;;2.51;65.80;100750.25;4982509;28;98191;-83
2021/11/05 02:53:42;;;;;;;1999.90;999.90;;;;;;;2.53;65.29;100756.50;4968630;28;100688;-85
2021/11/05 02:56:19;;;;;;;1999.90;999.90;;;;;;;2.56;65.08;100767.16;4977422;28;96793;-84
2021/11/05 02:58:55;;;;;;;1999.90;999.90;;;;;;;2.55;65.52;100760.06;4968449;28;97763;-83
2021/11/05 03:01:30;;;;;;;1999.90;999.90;;;;;;;2.52;65.54;100765.16;4965939;28;99387;-82
2021/11/05 03:04:04;;;;;;;1999.90;999.90;;;;;;;2.48;65.49;100769.38;4952356;28;99299;-85
2021/11/05 03:06:39;;;;;;;1999.90;999.90;;;;;;;2.48;65.73;100778.97;4946851;28;97017;-84
2021/11/05 03:09:11;;;;;;;1999.90;999.90;;;;;;;2.47;65.66;100783.34;4970997;28;98708;-83
2021/11/05 03:11:40;;;;;;;1999.90;999.90;;;;;;;2.46;65.35;100785.84;4953793;28;99342;-84
2021/11/05 03:14:09;;;;;;;1999.90;999.90;;;;;;;2.44;65.51;100787.53;4966758;28;98237;-85
2021/11/05 03:16:39;;;;;;;1999.90;999.90;;;;;;;2.43;65.72;100790.94;4985958;28;97737;-80
2021/11/05 03:19:08;;;;;;;1999.90;999.90;;;;;;;2.43;65.47;100790.94;4966404;28;97590;-82
2021/11/05 03:21:38;;;;;;;1999.90;999.90;;;;;;;2.42;65.22;100794.41;4979383;28;97984;-83
2021/11/05 03:24:07;;;;;;;1999.90;999.90;;;;;;;2.41;65.66;100801.38;4952641;28;100216;-85
2021/11/05 03:26:37;;;;;;;1999.90;999.90;;;;;;;2.43;65.30;100809.31;4966212;28;98909;-83
2021/11/05 03:29:10;;;;;;;1999.90;999.90;;;;;;;2.38;65.23;100803.84;4962166;28;98630;-84
2021/11/05 03:31:39;;;;;;;1999.90;999.90;;;;;;;2.39;65.66;100817.84;4968809;28;99282;-83
2021/11/05 03:34:12;;;;;;;1999.90;999.90;;;;;;;2.41;65.50;100816.22;4967730;28;97873;-83
2021/11/05 03:36:43;;;;;;;1999.90;999.90;;;;;;;2.38;66.27;100834.44;4948903;28;99137;-83
2021/11/05 03:39:26;;;;;;;1999.90;999.90;;;;;;;2.38;66.16;100837.06;4964757;28;97723;-84
2021/11/05 03:41:56;;;;;;;1999.90;999.90;;;;;;;2.39;66.02;100846.75;4965844;28;99843;-83
2021/11/05 03:44:27;;;;;;;1999.90;999.90;;;;;;;2.39;66.02;100846.75;4971069;28;98898;-84
2021/11/05 03:46:56;;;;;;;1999.90;999.90;;;;;;;2.35;65.77;100852.63;4970672;28;98093;-84
2021/11/05 03:49:25;;;;;;;1999.90;999.90;;;;;;;2.38;65.42;100856.38;4950553;28;98169;-85
2021/11/05 03:51:55;;;;;;;1999.90;999.90;;;;;;;2.41;65.77;100855.59;4973641;28;99844;-83
2021/11/05 03:55:10;;;;;;;;;;;;;;;;;;;;;
2021/11/05 04:02:48;;;;;;;1999.90;999.90;;;;;;;2.37;66.27;100890.38;4968380;28;98870;-84
2021/11/05 04:06:12;;;;;;;1999.90;999.90;;;;;;;2.37;66.12;100886.03;4964885;28;98041;-83
2021/11/05 04:09:00;;;;;;;1999.90;999.90;;;;;;;2.37;66.51;100895.63;4962199;28;99812;-85
2021/11/05 04:11:46;;;;;;;1999.90;999.90;;;;;;;2.35;66.54;100902.53;4963452;28;98240;-84
2021/11/05 04:14:20;;;;;;;1999.90;999.90;;;;;;;2.39;65.84;100902.78;4962430;28;98597;-84
2021/11/05 04:17:04;;;;;;;1999.90;999.90;;;;;;;2.42;65.51;100907.31;4963219;28;99130;-83
2021/11/05 04:19:45;;;;;;;1999.90;999.90;;;;;;;2.41;65.96;100916.00;4964438;28;98518;-83
2021/11/05 04:30:21;;;;;;;1999.90;999.90;;;;;;;2.40;66.30;100925.59;4959083;28;98520;-83
2021/11/05 04:32:51;;;;;;;1999.90;999.90;;;;;;;2.38;66.29;100924.63;4958074;28;99220;-85
2021/11/05 04:35:23;;;;;;;1999.90;999.90;;;;;;;2.38;66.44;100929.88;4985722;28;97238;-83
2021/11/05 04:37:51;;;;;;;1999.90;999.90;;;;;;;2.38;66.12;100937.75;4972333;28;98063;-83
2021/11/05 04:40:22;;;;;;;1999.90;999.90;;;;;;;2.34;66.51;100943.66;4960212;28;97794;-82
2021/11/05 04:42:52;;;;;;;1999.90;999.90;;;;;;;2.36;66.52;100938.47;4958088;28;99500;-82
2021/11/05 04:45:23;;;;;;;1999.90;999.90;;;;;;;2.37;66.17;100942.91;4958205;28;97887;-83
2021/11/05 04:48:01;;;;;;;1999.90;999.90;;;;;;;2.36;65.79;100946.34;4972556;28;97651;-85
2021/11/05 04:50:33;;;;;;;1999.90;999.90;;;;;;;2.36;65.89;100951.59;4958671;28;98346;-84
2021/11/05 04:53:02;;;;;;;1999.90;999.90;;;;;;;2.35;65.71;100949.78;4970651;28;98244;-84
2021/11/05 04:55:31;;;;;;;1999.90;999.90;;;;;;;2.36;66.16;100951.59;4971327;28;96752;-82
2021/11/05 04:58:02;;;;;;;1999.90;999.90;;;;;;;2.35;66.09;100961.19;4957434;28;97217;-83
2021/11/05 05:00:33;;;;;;;1999.90;999.90;;;;;;;2.36;65.66;100951.59;4970331;28;99650;-83
2021/11/05 05:03:01;;;;;;;1999.90;999.90;;;;;;;2.35;65.75;100955.94;4954921;28;100916;-83
2021/11/05 05:05:31;;;;;;;1999.90;999.90;;;;;;;2.34;65.94;100967.28;4974443;28;96756;-83
2021/11/05 05:08:04;;;;;;;1999.90;999.90;;;;;;;2.34;65.72;100969.91;4976026;28;96858;-84
2021/11/05 05:10:32;;;;;;;1999.90;999.90;;;;;;;2.34;66.00;100971.63;4967771;28;99056;-84
2021/11/05 05:13:04;;;;;;;1999.90;999.90;;;;;;;2.33;65.65;100970.72;4983984;28;98378;-86
2021/11/05 05:15:39;;;;;;;1999.90;999.90;;;;;;;2.32;66.03;100973.25;4953112;28;98523;-86
2021/11/05 05:18:15;;;;;;;1999.90;999.90;;;;;;;2.32;66.34;100974.16;4968461;28;97343;-85
2021/11/05 05:20:44;;;;;;;1999.90;999.90;;;;;;;2.34;65.94;100975.16;4964370;28;99430;-83
2021/11/05 05:23:17;;;;;;;1999.90;999.90;;;;;;;2.34;66.08;100983.03;4953244;28;99650;-82
2021/11/05 05:25:49;;;;;;;1999.90;999.90;;;;;;;2.33;66.37;100980.34;4963653;28;98182;-83
2021/11/05 05:28:21;;;;;;;1999.90;999.90;;;;;;;2.31;66.38;100981.97;4964430;28;98703;-85
2021/11/05 05:30:53;;;;;;;1999.90;999.90;;;;;;;2.33;66.32;100988.22;4950761;28;99946;-84
2021/11/05 05:33:24;;;;;;;1999.90;999.90;;;;;;;2.32;65.98;100986.38;4973241;28;99716;-85
2021/11/05 05:35:52;;;;;;;1999.90;999.90;;;;;;;2.34;66.52;101000.50;4972820;28;97695;-83
2021/11/05 05:38:21;;;;;;;1999.90;999.90;;;;;;;2.34;66.44;101000.50;4957372;28;98774;-83
2021/11/05 05:40:50;;;;;;;1999.90;999.90;;;;;;;2.36;66.18;101001.50;4985272;28;97789;-84
2021/11/05 05:43:19;;;;;;;1999.90;999.90;;;;;;;2.35;66.22;101018.97;4973608;28;99629;-83
2021/11/05 05:45:54;;;;;;;1999.90;999.90;;;;;;;2.37;66.13;101016.41;4966442;28;97231;-84
2021/11/05 05:48:23;;;;;;;1999.90;999.90;;;;;;;2.37;65.99;101016.41;4958226;28;96871;-82
2021/11/05 05:50:53;;;;;;;1999.90;999.90;;;;;;;2.39;66.10;101020.03;4975133;28;100919;-84
2021/11/05 05:53:25;;;;;;;1999.90;999.90;;;;;;;2.40;65.77;101028.00;4971823;28;97031;-86
2021/11/05 05:55:54;;;;;;;1999.90;999.90;;;;;;;2.40;65.84;101027.13;4956100;28;97234;-84
2021/11/05 05:58:23;;;;;;;1999.90;999.90;;;;;;;2.43;65.31;101028.19;4959176;28;97045;-85
2021/11/05 06:00:52;;;;;;;1999.90;999.90;;;;;;;2.45;65.96;101033.53;4956945;28;99160;-83
2021/11/05 06:03:22;;;;;;;1999.90;999.90;;;;;;;2.44;65.15;101044.88;4981820;28;99544;-83
2021/11/05 06:05:50;;;;;;;1999.90;999.90;;;;;;;2.44;65.33;101044.88;4972258;28;97474;-83
2021/11/05 06:08:19;;;;;;;1999.90;999.90;;;;;;;2.41;65.87;101052.56;4971474;28;98642;-76
2021/11/05 06:10:47;;;;;;;1999.90;999.90;;;;;;;2.46;65.75;101067.75;4950292;28;98413;-75
2021/11/05 06:13:15;;;;;;;1999.90;999.90;;;;;;;2.50;65.77;101066.22;4984079;28;100459;-76
2021/11/05 06:15:43;;;;;;;1999.90;999.90;;;;;;;2.51;66.71;101073.28;4966756;28;97947;-76
2021/11/05 06:18:11;;;;;;;1999.90;999.90;;;;;;;2.56;65.69;101079.72;4967442;28;97062;-76
2021/11/05 06:20:41;;;;;;;1999.90;999.90;;;;;;;2.59;65.56;101082.50;4956819;28;100207;-76
2021/11/05 06:23:09;;;;;;;1999.90;999.90;;;;;;;2.63;65.54;101101.19;4948304;28;99531;-85
2021/11/05 06:25:38;;;;;;;1999.90;999.90;;;;;;;2.65;65.78;101106.50;4971396;28;97916;-84
2021/11/05 06:28:09;;;;;;;1999.90;999.90;;;;;;;2.67;65.42;101102.25;4970279;28;98180;-83
2021/11/05 06:30:40;;;;;;;1999.90;999.90;;;;;;;2.66;65.78;101111.84;4972652;28;98368;-84
2021/11/05 06:33:10;;;;;;;1999.90;999.90;;;;;;;2.66;65.37;101111.84;4970207;28;99111;-85
2021/11/05 06:35:41;;;;;;;1999.90;999.90;;;;;;;2.65;65.57;101115.31;4965660;28;97323;-86
2021/11/05 06:38:09;;;;;;;1999.90;999.90;;;;;;;2.65;65.56;101122.28;4971899;28;97275;-84
2021/11/05 06:40:41;;;;;;;1999.90;999.90;;;;;;;2.65;65.55;101131.06;4972660;28;98946;-85
2021/11/05 06:43:11;;;;;;;1999.90;999.90;;;;;;;2.67;65.82;101129.44;4969404;28;99316;-83
2021/11/05 06:45:40;;;;;;;1999.90;999.90;;;;;;;2.67;65.51;101136.41;4989189;28;99363;-84
2021/11/05 06:48:08;;;;;;;1999.90;999.90;;;;;;;2.70;65.52;101144.47;4978313;28;97629;-84
2021/11/05 06:50:42;;;;;;;1999.90;999.90;;;;;;;2.71;65.75;101148.91;4970013;28;98891;-85
2021/11/05 06:53:12;;;;;;;1999.90;999.90;;;;;;;2.71;65.19;101146.28;4973704;28;98179;-86
2021/11/05 06:55:41;;;;;;;1999.90;999.90;;;;;;;2.69;65.33;101145.28;4956672;28;97188;-83
2021/11/05 06:58:11;;;;;;;1999.90;999.90;;;;;;;2.71;65.39;101151.53;4954586;28;97748;-84
2021/11/05 07:00:43;;;;;;;1999.90;999.90;;;;;;;2.70;65.80;101154.97;4988063;28;97710;-83
2021/11/05 07:03:12;;;;;;;1999.90;999.90;;;;;;;2.73;65.30;101160.41;4959263;28;100809;-83
2021/11/05 07:05:42;;;;;;;1999.90;999.90;;;;;;;2.74;65.64;101170.09;4970061;28;97961;-84
2021/11/05 07:08:12;;;;;;;1999.90;999.90;;;;;;;2.74;64.98;101173.66;4974362;28;97431;-83
2021/11/05 07:10:41;;;;;;;1999.90;999.90;;;;;;;2.73;65.07;101181.44;4979747;28;99417;-85
2021/11/05 07:13:11;;;;;;;1999.90;999.90;;;;;;;2.72;65.65;101184.88;4979522;28;98023;-83
2021/11/05 07:15:39;;;;;;;1999.90;999.90;;;;;;;2.73;65.36;101195.47;4977281;28;98063;-84
2021/11/05 07:18:08;;;;;;;1999.90;999.90;;;;;;;2.72;65.32;101193.66;4977603;28;97483;-84
2021/11/05 07:20:37;;;;;;;1999.90;999.90;;;;;;;2.71;65.75;101193.56;4977813;28;98227;-85
2021/11/05 07:23:08;;;;;;;1999.90;999.90;;;;;;;2.71;65.52;101204.09;4971699;28;97790;-84
2021/11/05 07:25:37;;;;;;;1999.90;999.90;;;;;;;2.70;65.04;101207.50;4970889;28;96723;-84
2021/11/05 07:28:05;;;;;;;1999.90;999.90;;;;;;;2.73;65.33;101215.59;4978721;28;97198;-82
2021/11/05 07:30:34;;;;;;;1999.90;999.90;;;;;;;2.75;65.51;101217.47;4978662;28;99127;-83
2021/11/05 07:33:02;;;;;;;1999.90;999.90;;;;;;;2.78;65.39;101225.56;4974634;28;99661;-83
2021/11/05 07:35:31;;;;;;;1999.90;999.90;;;;;;;2.77;65.24;101225.44;4950455;28;99094;-84
2021/11/05 07:38:01;;;;;;;1999.90;999.90;;;;;;;2.79;65.61;101232.63;4959872;28;96815;-84
2021/11/05 07:40:32;;;;;;;1999.90;999.90;;;;;;;2.81;64.91;101227.44;4972507;28;99301;-84
2021/11/05 07:43:01;;;;;;;1999.90;999.90;;;;;;;2.82;65.29;101245.03;4972258;28;98548;-85
2021/11/05 07:45:29;;;;;;;1999.90;999.90;;;;;;;2.82;65.44;101239.78;4976589;28;97984;-82
2021/11/05 07:48:00;;;;;;;1999.90;999.90;;;;;;;2.82;65.15;101243.31;4988219;28;97554;-84
2021/11/05 07:50:33;;;;;;;1999.90;999.90;;;;;;;2.84;65.27;101246.00;4973612;28;98280;-84
2021/11/05 07:53:02;;;;;;;1999.90;999.90;;;;;;;2.85;65.07;101253.09;4955164;28;99497;-83
2021/11/05 07:55:32;;;;;;;1999.90;999.90;;;;;;;2.84;65.63;101253.91;4974655;28;97870;-84
2021/11/05 07:58:01;;;;;;;1999.90;999.90;;;;;;;2.84;65.27;101251.28;4961116;28;97546;-84
2021/11/05 08:00:29;;;;;;;1999.90;999.90;;;;;;;2.84;65.22;101253.91;4957679;28;99437;-83
2021/11/05 08:02:59;;;;;;;1999.90;999.90;;;;;;;2.84;65.36;101264.41;4978589;28;99757;-83
2021/11/05 08:05:27;;;;;;;1999.90;999.90;;;;;;;2.85;65.12;101269.78;4977365;28;96813;-84
2021/11/05 08:07:58;;;;;;;1999.90;999.90;;;;;;;2.86;64.86;101273.28;4977162;28;97718;-84
2021/11/05 08:10:27;;;;;;;1999.90;999.90;;;;;;;2.87;65.00;101269.88;4971997;28;98700;-83
2021/11/05 08:12:57;;;;;;;1999.90;999.90;;;;;;;2.88;65.12;101271.66;4975267;28;99890;-83
2021/11/05 08:15:25;;;;;;;1999.90;999.90;;;;;;;2.89;65.20;101276.13;4969336;28;97837;-84
2021/11/05 08:17:53;;;;;;;1999.90;999.90;;;;;;;2.88;65.57;101284.81;4957609;28;98020;-83
2021/11/05 08:20:22;;;;;;;1999.90;999.90;;;;;;;2.87;65.39;101275.13;4971677;28;99443;-83
2021/11/05 08:22:50;;;;;;;1999.90;999.90;;;;;;;2.85;65.09;101298.69;4956799;28;99432;-82
2021/11/05 08:25:20;;;;;;;1999.90;999.90;;;;;;;2.86;65.14;101291.69;4953633;28;96888;-83
2021/11/05 08:27:48;;;;;;;1999.90;999.90;;;;;;;2.86;65.38;101294.31;4976441;28;96824;-82
2021/11/05 08:30:22;;;;;;;1999.90;999.90;;;;;;;2.86;65.77;101295.25;4976817;28;100286;-84
2021/11/05 08:32:52;;;;;;;1999.90;999.90;;;;;;;2.87;65.51;101311.94;4960534;28;99526;-84
2021/11/05 08:35:22;;;;;;;1999.90;999.90;;;;;;;2.88;65.05;101308.47;4972038;28;97099;-83
2021/11/05 08:37:51;;;;;;;1999.90;999.90;;;;;;;2.89;65.58;101316.44;4960110;28;96957;-85
2021/11/05 08:40:19;;;;;;;1999.90;999.90;;;;;;;2.91;65.20;101316.56;4957651;28;99962;-83
2021/11/05 08:42:50;;;;;;;1999.90;999.90;;;;;;;2.91;65.06;101321.81;4993388;28;99565;-83
2021/11/05 08:45:20;;;;;;;1999.90;999.90;;;;;;;2.91;65.62;101325.31;4959819;28;97319;-83
2021/11/05 08:47:48;;;;;;;1999.90;999.90;;;;;;;2.93;65.21;101331.59;4971830;28;96793;-86
2021/11/05 08:50:21;;;;;;;1999.90;999.90;;;;;;;2.97;65.01;101338.84;4970379;28;100566;-83
2021/11/05 08:52:49;;;;;;;1999.90;999.90;;;;;;;2.98;65.28;101339.75;4971104;28;100939;-83
2021/11/05 08:55:19;;;;;;;1999.90;999.90;;;;;;;2.98;65.11;101340.66;4968138;28;97543;-84
2021/11/05 08:57:48;;;;;;;1999.90;999.90;;;;;;;3.00;64.93;101354.78;4985082;28;96830;-84
2021/11/05 09:00:23;;;;;;;1999.90;999.90;;;;;;;3.03;65.37;101352.38;4954684;28;99502;-83
2021/11/05 09:02:52;;;;;;;1999.90;999.90;;;;;;;3.06;65.27;101355.19;4969970;28;99123;-84
2021/11/05 09:05:22;;;;;;;1999.90;999.90;;;;;;;3.08;65.21;101360.50;4982996;28;97376;-85
2021/11/05 09:07:53;;;;;;;1999.90;999.90;;;;;;;3.10;65.10;101359.81;4968252;28;96925;-84
2021/11/05 09:10:22;;;;;;;1999.90;999.90;;;;;;;3.13;65.05;101367.88;4970894;28;99413;-83
2021/11/05 09:12:51;;;;;;;1999.90;999.90;;;;;;;3.15;65.12;101365.31;4982646;28;99350;-85
2021/11/05 09:15:23;;;;;;;1999.90;999.90;;;;;;;3.20;65.00;101374.41;4973396;28;97046;-83
2021/11/05 09:17:52;;;;;;;1999.90;999.90;;;;;;;3.22;65.05;101378.06;4968450;28;97236;-82
2021/11/05 09:20:21;;;;;;;1999.90;999.90;;;;;;;3.23;64.87;101383.41;4972423;28;98144;-82
2021/11/05 09:22:50;;;;;;;1999.90;999.90;;;;;;;3.24;65.15;101384.28;4965448;28;98203;-83
2021/11/05 09:25:19;;;;;;;1999.90;999.90;;;;;;;3.29;65.06;101387.19;4962486;28;97436;-83
2021/11/05 09:27:48;;;;;;;1999.90;999.90;;;;;;;3.34;64.95;101402.44;4949372;28;97528;-83
2021/11/05 09:30:23;;;;;;;1999.90;999.90;;;;;;;3.35;65.05;101404.25;4951383;28;99238;-85
2021/11/05 09:32:53;;;;;;;1999.90;999.90;;;;;;;3.36;65.16;101405.16;4970514;28;99678;-83
2021/11/05 09:35:26;;;;;;;1999.90;999.90;;;;;;;3.37;64.92;101407.88;4966207;28;97401;-84
2021/11/05 09:37:58;;;;;;;1999.90;999.90;;;;;;;3.41;64.59;101412.50;4966327;28;97509;-83
2021/11/05 09:40:29;;;;;;;1999.90;999.90;;;;;;;3.42;65.07;101419.59;4955358;28;99335;-83
2021/11/05 09:43:19;;;;;;;1999.90;999.90;;;;;;;3.42;65.11;101418.69;4963908;28;99247;-83
2021/11/05 09:45:56;;;;;;;1999.90;999.90;;;;;;;3.41;65.22;101422.13;4974133;28;96929;-82
2021/11/05 09:48:29;;;;;;;1999.90;999.90;;;;;;;3.46;64.87;101418.94;4977866;28;96960;-84
2021/11/05 09:50:59;;;;;;;1999.90;999.90;;;;;;;3.43;64.79;101426.66;4954827;28;99470;-84
2021/11/05 09:53:30;;;;;;;1999.90;999.90;;;;;;;3.46;64.70;101429.47;4972469;28;99440;-84
2021/11/05 09:56:03;;;;;;;1999.90;999.90;;;;;;;3.48;64.92;101422.56;4956309;28;96912;-84
2021/11/05 09:58:32;;;;;;;1999.90;999.90;;;;;;;3.48;64.81;101433.09;4967017;28;98860;-82
2021/11/05 10:01:02;;;;;;;1999.90;999.90;;;;;;;3.45;64.68;101438.19;4960681;28;99313;-85
2021/11/05 10:03:33;;;;;;;1999.90;999.90;;;;;;;3.48;64.67;101432.22;4980552;28;100631;-82
2021/11/05 10:06:02;;;;;;;1999.90;999.90;;;;;;;3.50;64.97;101434.09;4975207;28;97185;-82
2021/11/05 10:08:32;;;;;;;1999.90;999.90;;;;;;;3.53;64.56;101444.81;4982526;28;97948;-82
2021/11/05 10:11:01;;;;;;;1999.90;999.90;;;;;;;3.51;64.86;101443.84;4962624;28;100530;-82
2021/11/05 10:13:30;;;;;;;1999.90;999.90;;;;;;;3.54;64.72;101438.75;4978100;28;99435;-82
2021/11/05 10:15:58;;;;;;;1999.90;999.90;;;;;;;3.55;64.56;101452.81;4991070;28;97009;-83
2021/11/05 10:18:31;;;;;;;1999.90;999.90;;;;;;;3.57;64.32;101448.56;4975037;28;97118;-83
2021/11/05 10:21:09;;;;;;;1999.90;999.90;;;;;;;3.56;65.27;101457.25;4965726;28;100589;-84
2021/11/05 10:23:40;;;;;;;1999.90;999.90;;;;;;;3.61;64.64;101463.69;4982286;28;99138;-85
2021/11/05 10:26:20;;;;;;;1999.90;999.90;;;;;;;3.64;64.76;101464.78;4974590;28;98118;-80
2021/11/05 10:28:49;;;;;;;1999.90;999.90;;;;;;;3.65;64.35;101464.00;4959367;28;96856;-83
2021/11/05 10:31:19;;;;;;;1999.90;999.90;;;;;;;3.69;64.58;101470.34;4960012;28;99532;-82
2021/11/05 10:33:51;;;;;;;1999.90;999.90;;;;;;;3.70;64.41;101480.97;4975885;28;100410;-81
2021/11/05 10:36:21;;;;;;;1999.90;999.90;;;;;;;3.73;64.48;101478.50;4971426;28;96959;-82
2021/11/05 10:38:51;;;;;;;1999.90;999.90;;;;;;;3.75;64.19;101471.63;4973401;28;97401;-83
2021/11/05 10:41:21;;;;;;;1999.90;999.90;;;;;;;3.79;64.12;101484.16;4962554;28;99258;-82
2021/11/05 10:43:53;;;;;;;1999.90;999.90;;;;;;;3.83;63.87;101485.22;4955421;28;99593;-84
2021/11/05 10:46:30;;;;;;;1999.90;999.90;;;;;;;3.85;64.33;101483.59;4967449;28;96966;-83
2021/11/05 10:49:04;;;;;;;1999.90;999.90;;;;;;;3.87;64.62;101481.97;4968408;28;98441;-83
2021/11/05 10:51:35;;;;;;;1999.90;999.90;;;;;;;3.91;64.10;101482.25;4979709;28;98716;-83
2021/11/05 10:54:04;;;;;;;1999.90;999.90;;;;;;;3.92;64.29;101489.31;4962861;28;98345;-82
2021/11/05 10:56:33;;;;;;;1999.90;999.90;;;;;;;3.95;64.04;101492.13;4951477;28;97168;-81
2021/11/05 10:59:05;;;;;;;1999.90;999.90;;;;;;;3.96;63.94;101487.78;4963839;28;97289;-83
2021/11/05 11:01:37;;;;;;;1999.90;999.90;;;;;;;3.95;63.82;101494.75;4969869;28;97868;-85
2021/11/05 11:04:08;;;;;;;1999.90;999.90;;;;;;;3.97;63.86;101498.41;4965827;28;100044;-82
2021/11/05 11:06:41;;;;;;;1999.90;999.90;;;;;;;3.98;63.95;101501.94;4951646;28;97534;-84
2021/11/05 11:09:11;;;;;;;1999.90;999.90;;;;;;;4.00;63.98;101505.59;4951783;28;98282;-83
2021/11/05 11:11:40;;;;;;;1999.90;999.90;;;;;;;3.98;63.98;101502.88;4968645;28;100909;-83
2021/11/05 11:14:15;;;;;;;1999.90;999.90;;;;;;;3.99;64.08;101509.94;4951352;28;98954;-83
2021/11/05 11:16:46;;;;;;;1999.90;999.90;;;;;;;4.03;63.82;101513.66;4969475;28;96928;-84
2021/11/05 11:19:17;;;;;;;1999.90;999.90;;;;;;;4.02;63.91;101515.38;4952461;28;96884;-81
2021/11/05 11:21:56;;;;;;;1999.90;999.90;;;;;;;4.03;63.77;101518.91;4965024;28;99832;-83
2021/11/05 11:24:26;;;;;;;1999.90;999.90;;;;;;;4.07;63.89;101515.66;4963391;28;98932;-82
2021/11/05 11:26:56;;;;;;;1999.90;999.90;;;;;;;4.08;63.78;101515.75;4980379;28;97097;-82
2021/11/05 11:29:30;;;;;;;1999.90;999.90;;;;;;;4.11;63.73;101521.19;4967411;28;97320;-83
2021/11/05 11:32:00;;;;;;;1999.90;999.90;;;;;;;4.14;63.82;101520.44;4976291;28;98400;-81
2021/11/05 11:34:30;;;;;;;1999.90;999.90;;;;;;;4.15;63.77;101520.53;4975886;28;99682;-82